sensor_id;sensor_type;location;lat;lon;timestamp;P1;durP1;ratioP1;P2;durP2;ratioP2
17955;SDS011;27666;51.498;11.966;2023-01-20T00:02:35;17.50;;;9.40;;
17955;SDS011;27666;51.498;11.966;2023-01-20T00:05:23;18.67;;;10.53;;
17955;SDS011;27666;51.498;11.966;2023-01-20T00:08:09;25.27;;;10.00;;
17955;SDS011;27666;51.498;11.966;2023-01-20T00:10:56;18.83;;;10.53;;
17955;SDS011;27666;51.498;11.966;2023-01-20T00:13:42;17.10;;;9.20;;
17955;SDS011;27666;51.498;11.966;2023-01-20T00:16:29;20.77;;;10.50;;
17955;SDS011;27666;51.498;11.966;2023-01-20T00:19:16;18.10;;;9.63;;
17955;SDS011;27666;51.498;11.966;2023-01-20T00:22:04;22.10;;;10.17;;
17955;SDS011;27666;51.498;11.966;2023-01-20T00:24:51;18.77;;;10.43;;
17955;SDS011;27666;51.498;11.966;2023-01-20T00:27:37;19.13;;;9.87;;
17955;SDS011;27666;51.498;11.966;2023-01-20T00:30:23;18.03;;;9.57;;
17955;SDS011;27666;51.498;11.966;2023-01-20T00:33:10;16.17;;;9.10;;
17955;SDS011;27666;51.498;11.966;2023-01-20T00:35:56;20.27;;;9.50;;
17955;SDS011;27666;51.498;11.966;2023-01-20T00:38:44;15.23;;;9.10;;
17955;SDS011;27666;51.498;11.966;2023-01-20T00:41:30;17.70;;;9.80;;
17955;SDS011;27666;51.498;11.966;2023-01-20T00:44:16;17.10;;;9.40;;
17955;SDS011;27666;51.498;11.966;2023-01-20T00:47:03;18.73;;;9.63;;
17955;SDS011;27666;51.498;11.966;2023-01-20T00:49:50;18.07;;;10.13;;
17955;SDS011;27666;51.498;11.966;2023-01-20T00:52:36;16.23;;;9.87;;
17955;SDS011;27666;51.498;11.966;2023-01-20T00:55:24;20.03;;;8.63;;
17955;SDS011;27666;51.498;11.966;2023-01-20T00:58:10;19.73;;;9.87;;
17955;SDS011;27666;51.498;11.966;2023-01-20T01:00:57;19.43;;;9.97;;
17955;SDS011;27666;51.498;11.966;2023-01-20T01:03:44;23.33;;;9.93;;
17955;SDS011;27666;51.498;11.966;2023-01-20T01:06:30;19.53;;;9.87;;
17955;SDS011;27666;51.498;11.966;2023-01-20T01:09:17;22.97;;;11.20;;
17955;SDS011;27666;51.498;11.966;2023-01-20T01:12:06;21.47;;;9.97;;
17955;SDS011;27666;51.498;11.966;2023-01-20T01:14:53;27.33;;;10.10;;
17955;SDS011;27666;51.498;11.966;2023-01-20T01:17:39;18.83;;;9.63;;
17955;SDS011;27666;51.498;11.966;2023-01-20T01:20:29;18.23;;;9.80;;
17955;SDS011;27666;51.498;11.966;2023-01-20T01:23:15;19.27;;;10.20;;
17955;SDS011;27666;51.498;11.966;2023-01-20T01:26:02;19.03;;;9.00;;
17955;SDS011;27666;51.498;11.966;2023-01-20T01:28:50;23.07;;;9.80;;
17955;SDS011;27666;51.498;11.966;2023-01-20T01:31:37;19.17;;;9.70;;
17955;SDS011;27666;51.498;11.966;2023-01-20T01:34:24;24.03;;;10.13;;
17955;SDS011;27666;51.498;11.966;2023-01-20T01:37:10;19.17;;;9.73;;
17955;SDS011;27666;51.498;11.966;2023-01-20T01:39:56;15.47;;;8.73;;
17955;SDS011;27666;51.498;11.966;2023-01-20T01:42:43;19.03;;;9.67;;
17955;SDS011;27666;51.498;11.966;2023-01-20T01:45:32;16.27;;;8.47;;
17955;SDS011;27666;51.498;11.966;2023-01-20T01:48:19;20.17;;;9.00;;
17955;SDS011;27666;51.498;11.966;2023-01-20T01:51:10;15.63;;;8.97;;
17955;SDS011;27666;51.498;11.966;2023-01-20T01:54:02;17.43;;;8.67;;
17955;SDS011;27666;51.498;11.966;2023-01-20T01:56:53;16.33;;;9.33;;
17955;SDS011;27666;51.498;11.966;2023-01-20T01:59:41;14.63;;;8.20;;
17955;SDS011;27666;51.498;11.966;2023-01-20T02:02:30;25.80;;;9.47;;
17955;SDS011;27666;51.498;11.966;2023-01-20T02:05:17;21.20;;;9.80;;
17955;SDS011;27666;51.498;11.966;2023-01-20T02:08:06;18.87;;;9.47;;
17955;SDS011;27666;51.498;11.966;2023-01-20T02:10:53;21.83;;;9.43;;
17955;SDS011;27666;51.498;11.966;2023-01-20T02:13:40;17.97;;;9.20;;
17955;SDS011;27666;51.498;11.966;2023-01-20T02:16:29;16.83;;;8.83;;
17955;SDS011;27666;51.498;11.966;2023-01-20T02:19:50;17.20;;;8.03;;
17955;SDS011;27666;51.498;11.966;2023-01-20T02:22:48;17.20;;;8.07;;
17955;SDS011;27666;51.498;11.966;2023-01-20T02:25:45;22.63;;;10.00;;
17955;SDS011;27666;51.498;11.966;2023-01-20T02:28:59;16.90;;;8.13;;
17955;SDS011;27666;51.498;11.966;2023-01-20T02:32:18;17.97;;;8.97;;
17955;SDS011;27666;51.498;11.966;2023-01-20T02:35:12;20.33;;;9.07;;
17955;SDS011;27666;51.498;11.966;2023-01-20T02:38:10;18.77;;;8.70;;
17955;SDS011;27666;51.498;11.966;2023-01-20T02:41:03;22.50;;;9.40;;
17955;SDS011;27666;51.498;11.966;2023-01-20T02:43:55;15.50;;;8.20;;
17955;SDS011;27666;51.498;11.966;2023-01-20T02:46:47;16.20;;;8.43;;
17955;SDS011;27666;51.498;11.966;2023-01-20T02:49:40;14.17;;;7.70;;
17955;SDS011;27666;51.498;11.966;2023-01-20T02:52:34;18.63;;;8.30;;
17955;SDS011;27666;51.498;11.966;2023-01-20T02:55:25;17.63;;;8.67;;
17955;SDS011;27666;51.498;11.966;2023-01-20T02:58:17;19.20;;;8.50;;
17955;SDS011;27666;51.498;11.966;2023-01-20T03:01:09;17.90;;;9.07;;
17955;SDS011;27666;51.498;11.966;2023-01-20T03:03:58;17.50;;;8.43;;
17955;SDS011;27666;51.498;11.966;2023-01-20T03:06:50;20.57;;;8.37;;
17955;SDS011;27666;51.498;11.966;2023-01-20T03:09:40;17.33;;;8.83;;
17955;SDS011;27666;51.498;11.966;2023-01-20T03:12:33;16.33;;;9.53;;
17955;SDS011;27666;51.498;11.966;2023-01-20T03:15:26;23.10;;;9.33;;
17955;SDS011;27666;51.498;11.966;2023-01-20T03:18:20;12.17;;;7.97;;
17955;SDS011;27666;51.498;11.966;2023-01-20T03:21:08;17.00;;;9.00;;
17955;SDS011;27666;51.498;11.966;2023-01-20T03:23:58;18.30;;;9.30;;
17955;SDS011;27666;51.498;11.966;2023-01-20T03:26:46;15.70;;;8.83;;
17955;SDS011;27666;51.498;11.966;2023-01-20T03:29:32;19.20;;;8.47;;
17955;SDS011;27666;51.498;11.966;2023-01-20T03:32:19;20.13;;;9.27;;
17955;SDS011;27666;51.498;11.966;2023-01-20T03:35:09;17.23;;;8.80;;
17955;SDS011;27666;51.498;11.966;2023-01-20T03:37:58;18.57;;;10.50;;
17955;SDS011;27666;51.498;11.966;2023-01-20T03:40:47;14.30;;;9.27;;
17955;SDS011;27666;51.498;11.966;2023-01-20T03:43:42;15.87;;;8.67;;
17955;SDS011;27666;51.498;11.966;2023-01-20T03:46:31;14.63;;;8.97;;
17955;SDS011;27666;51.498;11.966;2023-01-20T03:49:25;18.67;;;9.07;;
17955;SDS011;27666;51.498;11.966;2023-01-20T03:52:17;19.77;;;9.63;;
17955;SDS011;27666;51.498;11.966;2023-01-20T03:55:30;19.13;;;9.70;;
17955;SDS011;27666;51.498;11.966;2023-01-20T03:58:24;20.30;;;9.40;;
17955;SDS011;27666;51.498;11.966;2023-01-20T04:01:14;18.17;;;9.67;;
17955;SDS011;27666;51.498;11.966;2023-01-20T04:04:04;17.17;;;9.70;;
17955;SDS011;27666;51.498;11.966;2023-01-20T04:06:56;19.87;;;10.27;;
17955;SDS011;27666;51.498;11.966;2023-01-20T04:09:44;19.03;;;10.33;;
17955;SDS011;27666;51.498;11.966;2023-01-20T04:12:33;23.87;;;10.37;;
17955;SDS011;27666;51.498;11.966;2023-01-20T04:15:21;21.90;;;10.87;;
17955;SDS011;27666;51.498;11.966;2023-01-20T04:18:10;19.00;;;10.27;;
17955;SDS011;27666;51.498;11.966;2023-01-20T04:20:59;18.27;;;9.67;;
17955;SDS011;27666;51.498;11.966;2023-01-20T04:23:48;20.13;;;12.63;;
17955;SDS011;27666;51.498;11.966;2023-01-20T04:26:41;19.93;;;10.30;;
17955;SDS011;27666;51.498;11.966;2023-01-20T04:29:28;21.23;;;10.50;;
17955;SDS011;27666;51.498;11.966;2023-01-20T04:32:16;22.07;;;10.77;;
17955;SDS011;27666;51.498;11.966;2023-01-20T04:35:02;17.87;;;10.90;;
17955;SDS011;27666;51.498;11.966;2023-01-20T04:37:49;19.80;;;10.13;;
17955;SDS011;27666;51.498;11.966;2023-01-20T04:40:35;18.77;;;10.73;;
17955;SDS011;27666;51.498;11.966;2023-01-20T04:43:22;18.90;;;10.17;;
17955;SDS011;27666;51.498;11.966;2023-01-20T04:46:09;22.83;;;11.20;;
17955;SDS011;27666;51.498;11.966;2023-01-20T04:48:57;16.70;;;10.07;;
17955;SDS011;27666;51.498;11.966;2023-01-20T04:51:44;20.10;;;10.93;;
17955;SDS011;27666;51.498;11.966;2023-01-20T04:54:30;26.50;;;10.93;;
17955;SDS011;27666;51.498;11.966;2023-01-20T04:57:16;19.43;;;10.70;;
17955;SDS011;27666;51.498;11.966;2023-01-20T05:00:04;23.37;;;10.33;;
17955;SDS011;27666;51.498;11.966;2023-01-20T05:02:52;21.53;;;10.70;;
17955;SDS011;27666;51.498;11.966;2023-01-20T05:05:43;16.67;;;10.13;;
17955;SDS011;27666;51.498;11.966;2023-01-20T05:08:37;17.53;;;10.17;;
17955;SDS011;27666;51.498;11.966;2023-01-20T05:11:23;25.03;;;9.90;;
17955;SDS011;27666;51.498;11.966;2023-01-20T05:14:10;19.27;;;10.70;;
17955;SDS011;27666;51.498;11.966;2023-01-20T05:16:57;16.53;;;9.67;;
17955;SDS011;27666;51.498;11.966;2023-01-20T05:19:43;16.43;;;9.10;;
17955;SDS011;27666;51.498;11.966;2023-01-20T05:22:31;20.80;;;10.03;;
17955;SDS011;27666;51.498;11.966;2023-01-20T05:25:17;14.30;;;9.13;;
17955;SDS011;27666;51.498;11.966;2023-01-20T05:28:04;16.30;;;9.37;;
17955;SDS011;27666;51.498;11.966;2023-01-20T05:30:51;16.57;;;9.67;;
17955;SDS011;27666;51.498;11.966;2023-01-20T05:33:37;17.07;;;8.90;;
17955;SDS011;27666;51.498;11.966;2023-01-20T05:36:24;15.97;;;9.70;;
17955;SDS011;27666;51.498;11.966;2023-01-20T05:39:13;21.80;;;12.37;;
17955;SDS011;27666;51.498;11.966;2023-01-20T05:41:59;18.23;;;9.17;;
17955;SDS011;27666;51.498;11.966;2023-01-20T05:44:46;14.63;;;9.17;;
17955;SDS011;27666;51.498;11.966;2023-01-20T05:47:32;15.43;;;9.30;;
17955;SDS011;27666;51.498;11.966;2023-01-20T05:50:18;16.43;;;9.23;;
17955;SDS011;27666;51.498;11.966;2023-01-20T05:53:05;19.60;;;11.87;;
17955;SDS011;27666;51.498;11.966;2023-01-20T05:55:58;32.20;;;19.43;;
17955;SDS011;27666;51.498;11.966;2023-01-20T05:58:45;31.10;;;16.97;;
17955;SDS011;27666;51.498;11.966;2023-01-20T06:01:32;29.63;;;14.77;;
17955;SDS011;27666;51.498;11.966;2023-01-20T06:04:18;69.37;;;35.53;;
17955;SDS011;27666;51.498;11.966;2023-01-20T06:07:04;73.13;;;31.57;;
17955;SDS011;27666;51.498;11.966;2023-01-20T06:09:51;73.23;;;34.40;;
17955;SDS011;27666;51.498;11.966;2023-01-20T06:12:39;105.83;;;50.63;;
17955;SDS011;27666;51.498;11.966;2023-01-20T06:15:25;62.23;;;27.33;;
17955;SDS011;27666;51.498;11.966;2023-01-20T06:18:13;67.10;;;32.60;;
17955;SDS011;27666;51.498;11.966;2023-01-20T06:20:59;34.73;;;18.20;;
17955;SDS011;27666;51.498;11.966;2023-01-20T06:23:46;26.40;;;11.93;;
17955;SDS011;27666;51.498;11.966;2023-01-20T06:26:32;24.67;;;13.57;;
17955;SDS011;27666;51.498;11.966;2023-01-20T06:29:20;23.10;;;12.37;;
17955;SDS011;27666;51.498;11.966;2023-01-20T06:32:06;22.73;;;12.23;;
17955;SDS011;27666;51.498;11.966;2023-01-20T06:34:53;22.07;;;10.87;;
17955;SDS011;27666;51.498;11.966;2023-01-20T06:37:39;22.57;;;10.63;;
17955;SDS011;27666;51.498;11.966;2023-01-20T06:40:25;20.87;;;11.00;;
17955;SDS011;27666;51.498;11.966;2023-01-20T06:43:12;19.70;;;11.10;;
17955;SDS011;27666;51.498;11.966;2023-01-20T06:46:00;20.37;;;11.10;;
17955;SDS011;27666;51.498;11.966;2023-01-20T06:48:48;19.03;;;10.90;;
17955;SDS011;27666;51.498;11.966;2023-01-20T06:51:35;19.63;;;10.67;;
17955;SDS011;27666;51.498;11.966;2023-01-20T06:54:21;22.03;;;9.93;;
17955;SDS011;27666;51.498;11.966;2023-01-20T06:57:08;17.73;;;10.43;;
17955;SDS011;27666;51.498;11.966;2023-01-20T06:59:54;16.67;;;10.60;;
17955;SDS011;27666;51.498;11.966;2023-01-20T07:02:43;22.67;;;10.80;;
17955;SDS011;27666;51.498;11.966;2023-01-20T07:05:30;23.93;;;11.70;;
17955;SDS011;27666;51.498;11.966;2023-01-20T07:08:16;22.63;;;10.87;;
17955;SDS011;27666;51.498;11.966;2023-01-20T07:11:03;25.10;;;11.10;;
17955;SDS011;27666;51.498;11.966;2023-01-20T07:13:49;27.07;;;13.53;;
17955;SDS011;27666;51.498;11.966;2023-01-20T07:16:36;24.57;;;12.23;;
17955;SDS011;27666;51.498;11.966;2023-01-20T07:19:24;23.93;;;12.70;;
17955;SDS011;27666;51.498;11.966;2023-01-20T07:22:10;21.07;;;11.73;;
17955;SDS011;27666;51.498;11.966;2023-01-20T07:24:57;19.60;;;11.07;;
17955;SDS011;27666;51.498;11.966;2023-01-20T07:27:44;20.70;;;11.33;;
17955;SDS011;27666;51.498;11.966;2023-01-20T07:30:31;22.60;;;10.57;;
17955;SDS011;27666;51.498;11.966;2023-01-20T07:33:17;25.80;;;11.80;;
17955;SDS011;27666;51.498;11.966;2023-01-20T07:36:05;18.10;;;10.67;;
17955;SDS011;27666;51.498;11.966;2023-01-20T07:38:52;21.03;;;10.77;;
17955;SDS011;27666;51.498;11.966;2023-01-20T07:41:39;20.27;;;11.50;;
17955;SDS011;27666;51.498;11.966;2023-01-20T07:44:27;18.60;;;10.40;;
17955;SDS011;27666;51.498;11.966;2023-01-20T07:47:13;23.37;;;12.03;;
17955;SDS011;27666;51.498;11.966;2023-01-20T07:50:00;18.80;;;10.93;;
17955;SDS011;27666;51.498;11.966;2023-01-20T07:52:48;29.57;;;11.57;;
17955;SDS011;27666;51.498;11.966;2023-01-20T07:55:34;18.93;;;11.60;;
17955;SDS011;27666;51.498;11.966;2023-01-20T07:58:21;18.40;;;11.03;;
17955;SDS011;27666;51.498;11.966;2023-01-20T08:01:08;16.87;;;10.67;;
17955;SDS011;27666;51.498;11.966;2023-01-20T08:03:56;26.77;;;10.43;;
17955;SDS011;27666;51.498;11.966;2023-01-20T08:06:45;22.90;;;10.50;;
17955;SDS011;27666;51.498;11.966;2023-01-20T08:09:33;18.13;;;11.07;;
17955;SDS011;27666;51.498;11.966;2023-01-20T08:12:19;19.07;;;10.27;;
17955;SDS011;27666;51.498;11.966;2023-01-20T08:15:06;19.43;;;10.40;;
17955;SDS011;27666;51.498;11.966;2023-01-20T08:17:54;17.47;;;9.97;;
17955;SDS011;27666;51.498;11.966;2023-01-20T08:20:42;17.10;;;9.93;;
17955;SDS011;27666;51.498;11.966;2023-01-20T08:23:28;19.40;;;9.63;;
17955;SDS011;27666;51.498;11.966;2023-01-20T08:26:16;16.93;;;9.60;;
17955;SDS011;27666;51.498;11.966;2023-01-20T08:29:04;20.17;;;10.03;;
17955;SDS011;27666;51.498;11.966;2023-01-20T08:31:51;16.77;;;10.30;;
17955;SDS011;27666;51.498;11.966;2023-01-20T08:34:38;17.30;;;9.87;;
17955;SDS011;27666;51.498;11.966;2023-01-20T08:37:24;21.60;;;11.67;;
17955;SDS011;27666;51.498;11.966;2023-01-20T08:40:11;49.40;;;23.23;;
17955;SDS011;27666;51.498;11.966;2023-01-20T08:42:59;26.73;;;14.93;;
17955;SDS011;27666;51.498;11.966;2023-01-20T08:45:46;22.37;;;12.07;;
17955;SDS011;27666;51.498;11.966;2023-01-20T08:48:32;18.47;;;10.20;;
17955;SDS011;27666;51.498;11.966;2023-01-20T08:51:20;17.07;;;10.70;;
17955;SDS011;27666;51.498;11.966;2023-01-20T08:54:08;16.97;;;10.10;;
17955;SDS011;27666;51.498;11.966;2023-01-20T08:56:54;16.07;;;9.97;;
17955;SDS011;27666;51.498;11.966;2023-01-20T08:59:42;19.10;;;10.20;;
17955;SDS011;27666;51.498;11.966;2023-01-20T09:02:30;18.60;;;10.77;;
17955;SDS011;27666;51.498;11.966;2023-01-20T09:05:17;34.80;;;19.67;;
17955;SDS011;27666;51.498;11.966;2023-01-20T09:08:06;21.57;;;11.87;;
17955;SDS011;27666;51.498;11.966;2023-01-20T09:10:52;23.00;;;10.43;;
17955;SDS011;27666;51.498;11.966;2023-01-20T09:13:41;18.80;;;9.63;;
17955;SDS011;27666;51.498;11.966;2023-01-20T09:16:29;20.90;;;11.47;;
17955;SDS011;27666;51.498;11.966;2023-01-20T09:19:15;17.77;;;9.27;;
17955;SDS011;27666;51.498;11.966;2023-01-20T09:22:02;19.50;;;10.43;;
17955;SDS011;27666;51.498;11.966;2023-01-20T09:24:49;21.03;;;9.97;;
17955;SDS011;27666;51.498;11.966;2023-01-20T09:27:35;17.93;;;10.00;;
17955;SDS011;27666;51.498;11.966;2023-01-20T09:30:22;19.03;;;10.13;;
17955;SDS011;27666;51.498;11.966;2023-01-20T09:33:11;19.23;;;9.63;;
17955;SDS011;27666;51.498;11.966;2023-01-20T09:35:58;17.90;;;9.93;;
17955;SDS011;27666;51.498;11.966;2023-01-20T09:38:44;19.80;;;10.47;;
17955;SDS011;27666;51.498;11.966;2023-01-20T09:41:48;21.47;;;10.57;;
17955;SDS011;27666;51.498;11.966;2023-01-20T09:44:55;23.63;;;12.27;;
17955;SDS011;27666;51.498;11.966;2023-01-20T09:47:49;18.67;;;10.97;;
17955;SDS011;27666;51.498;11.966;2023-01-20T09:50:41;16.23;;;10.57;;
17955;SDS011;27666;51.498;11.966;2023-01-20T09:53:49;19.13;;;11.40;;
17955;SDS011;27666;51.498;11.966;2023-01-20T09:56:46;17.83;;;10.53;;
17955;SDS011;27666;51.498;11.966;2023-01-20T09:59:36;16.40;;;10.53;;
17955;SDS011;27666;51.498;11.966;2023-01-20T10:02:29;21.57;;;10.93;;
17955;SDS011;27666;51.498;11.966;2023-01-20T10:05:19;18.80;;;10.43;;
17955;SDS011;27666;51.498;11.966;2023-01-20T10:08:14;19.20;;;11.43;;
17955;SDS011;27666;51.498;11.966;2023-01-20T10:11:05;16.97;;;10.53;;
17955;SDS011;27666;51.498;11.966;2023-01-20T10:13:58;20.33;;;11.03;;
17955;SDS011;27666;51.498;11.966;2023-01-20T10:16:53;16.63;;;9.47;;
17955;SDS011;27666;51.498;11.966;2023-01-20T10:19:48;21.30;;;12.33;;
17955;SDS011;27666;51.498;11.966;2023-01-20T10:22:41;20.47;;;11.60;;
17955;SDS011;27666;51.498;11.966;2023-01-20T10:25:37;20.43;;;10.90;;
17955;SDS011;27666;51.498;11.966;2023-01-20T10:28:27;18.27;;;10.30;;
17955;SDS011;27666;51.498;11.966;2023-01-20T10:31:16;17.77;;;9.60;;
17955;SDS011;27666;51.498;11.966;2023-01-20T10:34:11;15.47;;;9.27;;
17955;SDS011;27666;51.498;11.966;2023-01-20T10:37:03;21.60;;;10.30;;
17955;SDS011;27666;51.498;11.966;2023-01-20T10:39:54;20.70;;;9.97;;
17955;SDS011;27666;51.498;11.966;2023-01-20T10:45:42;19.07;;;10.73;;
17955;SDS011;27666;51.498;11.966;2023-01-20T10:48:44;18.80;;;10.50;;
17955;SDS011;27666;51.498;11.966;2023-01-20T10:51:45;23.20;;;10.97;;
17955;SDS011;27666;51.498;11.966;2023-01-20T10:54:40;19.83;;;11.20;;
17955;SDS011;27666;51.498;11.966;2023-01-20T10:57:37;20.77;;;10.80;;
17955;SDS011;27666;51.498;11.966;2023-01-20T11:00:26;17.00;;;9.47;;
17955;SDS011;27666;51.498;11.966;2023-01-20T11:03:16;20.90;;;10.37;;
17955;SDS011;27666;51.498;11.966;2023-01-20T11:06:04;15.60;;;10.17;;
17955;SDS011;27666;51.498;11.966;2023-01-20T11:08:52;19.70;;;10.47;;
17955;SDS011;27666;51.498;11.966;2023-01-20T11:11:39;19.70;;;10.60;;
17955;SDS011;27666;51.498;11.966;2023-01-20T11:14:26;22.47;;;11.00;;
17955;SDS011;27666;51.498;11.966;2023-01-20T11:17:16;20.43;;;10.63;;
17955;SDS011;27666;51.498;11.966;2023-01-20T11:20:04;18.57;;;10.47;;
17955;SDS011;27666;51.498;11.966;2023-01-20T11:22:52;17.53;;;10.30;;
17955;SDS011;27666;51.498;11.966;2023-01-20T11:25:39;31.10;;;15.77;;
17955;SDS011;27666;51.498;11.966;2023-01-20T11:28:26;23.80;;;12.77;;
17955;SDS011;27666;51.498;11.966;2023-01-20T11:31:21;18.43;;;11.17;;
17955;SDS011;27666;51.498;11.966;2023-01-20T11:34:23;21.67;;;10.63;;
17955;SDS011;27666;51.498;11.966;2023-01-20T11:37:14;22.27;;;11.20;;
17955;SDS011;27666;51.498;11.966;2023-01-20T11:40:15;33.87;;;13.70;;
17955;SDS011;27666;51.498;11.966;2023-01-20T11:43:04;29.43;;;16.17;;
17955;SDS011;27666;51.498;11.966;2023-01-20T11:46:17;17.17;;;9.90;;
17955;SDS011;27666;51.498;11.966;2023-01-20T11:49:11;22.57;;;10.87;;
17955;SDS011;27666;51.498;11.966;2023-01-20T11:52:01;20.33;;;10.93;;
17955;SDS011;27666;51.498;11.966;2023-01-20T11:54:48;19.03;;;10.50;;
17955;SDS011;27666;51.498;11.966;2023-01-20T11:57:52;22.57;;;11.30;;
17955;SDS011;27666;51.498;11.966;2023-01-20T12:00:43;21.23;;;10.73;;
17955;SDS011;27666;51.498;11.966;2023-01-20T12:06:59;41.57;;;20.77;;
17955;SDS011;27666;51.498;11.966;2023-01-20T12:09:51;19.40;;;10.80;;
17955;SDS011;27666;51.498;11.966;2023-01-20T12:12:42;17.97;;;10.27;;
17955;SDS011;27666;51.498;11.966;2023-01-20T12:15:33;19.63;;;10.50;;
17955;SDS011;27666;51.498;11.966;2023-01-20T12:18:27;19.63;;;10.67;;
17955;SDS011;27666;51.498;11.966;2023-01-20T12:21:19;19.30;;;10.70;;
17955;SDS011;27666;51.498;11.966;2023-01-20T12:24:11;20.53;;;10.97;;
17955;SDS011;27666;51.498;11.966;2023-01-20T12:27:03;17.70;;;10.40;;
17955;SDS011;27666;51.498;11.966;2023-01-20T12:29:50;18.23;;;9.17;;
17955;SDS011;27666;51.498;11.966;2023-01-20T12:32:39;17.20;;;10.43;;
17955;SDS011;27666;51.498;11.966;2023-01-20T12:35:26;16.87;;;9.47;;
17955;SDS011;27666;51.498;11.966;2023-01-20T12:38:17;20.23;;;9.83;;
17955;SDS011;27666;51.498;11.966;2023-01-20T12:41:07;16.87;;;9.40;;
17955;SDS011;27666;51.498;11.966;2023-01-20T12:44:03;19.93;;;10.27;;
17955;SDS011;27666;51.498;11.966;2023-01-20T12:46:58;21.30;;;10.63;;
17955;SDS011;27666;51.498;11.966;2023-01-20T12:49:58;46.00;;;23.30;;
17955;SDS011;27666;51.498;11.966;2023-01-20T12:52:58;23.53;;;10.47;;
17955;SDS011;27666;51.498;11.966;2023-01-20T12:55:56;18.43;;;9.87;;
17955;SDS011;27666;51.498;11.966;2023-01-20T12:58:55;18.97;;;9.70;;
17955;SDS011;27666;51.498;11.966;2023-01-20T13:01:52;17.10;;;9.37;;
17955;SDS011;27666;51.498;11.966;2023-01-20T13:04:56;18.73;;;9.73;;
17955;SDS011;27666;51.498;11.966;2023-01-20T13:07:56;18.70;;;9.57;;
17955;SDS011;27666;51.498;11.966;2023-01-20T13:10:56;23.80;;;9.33;;
17955;SDS011;27666;51.498;11.966;2023-01-20T13:13:58;18.33;;;10.77;;
17955;SDS011;27666;51.498;11.966;2023-01-20T13:16:52;17.70;;;9.47;;
17955;SDS011;27666;51.498;11.966;2023-01-20T13:19:46;18.63;;;9.20;;
17955;SDS011;27666;51.498;11.966;2023-01-20T13:22:35;15.33;;;8.90;;
17955;SDS011;27666;51.498;11.966;2023-01-20T13:25:22;13.93;;;8.70;;
17955;SDS011;27666;51.498;11.966;2023-01-20T13:28:16;18.33;;;9.10;;
17955;SDS011;27666;51.498;11.966;2023-01-20T13:34:32;16.57;;;10.43;;
17955;SDS011;27666;51.498;11.966;2023-01-20T13:37:21;17.33;;;8.90;;
17955;SDS011;27666;51.498;11.966;2023-01-20T13:40:45;15.83;;;8.37;;
17955;SDS011;27666;51.498;11.966;2023-01-20T13:46:46;17.07;;;9.93;;
17955;SDS011;27666;51.498;11.966;2023-01-20T13:49:47;19.37;;;10.00;;
17955;SDS011;27666;51.498;11.966;2023-01-20T13:56:00;13.70;;;7.87;;
17955;SDS011;27666;51.498;11.966;2023-01-20T13:58:47;26.67;;;9.67;;
17955;SDS011;27666;51.498;11.966;2023-01-20T14:01:33;20.27;;;8.80;;
17955;SDS011;27666;51.498;11.966;2023-01-20T14:04:22;16.20;;;8.90;;
17955;SDS011;27666;51.498;11.966;2023-01-20T14:07:14;12.57;;;7.87;;
17955;SDS011;27666;51.498;11.966;2023-01-20T14:10:09;23.63;;;11.03;;
17955;SDS011;27666;51.498;11.966;2023-01-20T14:12:58;16.97;;;9.47;;
17955;SDS011;27666;51.498;11.966;2023-01-20T14:15:47;16.37;;;8.73;;
17955;SDS011;27666;51.498;11.966;2023-01-20T14:18:35;18.00;;;8.33;;
17955;SDS011;27666;51.498;11.966;2023-01-20T14:21:26;18.10;;;8.50;;
17955;SDS011;27666;51.498;11.966;2023-01-20T14:24:23;18.87;;;9.07;;
17955;SDS011;27666;51.498;11.966;2023-01-20T14:27:14;14.10;;;8.17;;
17955;SDS011;27666;51.498;11.966;2023-01-20T14:30:12;18.17;;;8.93;;
17955;SDS011;27666;51.498;11.966;2023-01-20T14:33:03;18.37;;;9.30;;
17955;SDS011;27666;51.498;11.966;2023-01-20T14:35:53;30.07;;;15.03;;
17955;SDS011;27666;51.498;11.966;2023-01-20T14:38:41;22.53;;;12.47;;
17955;SDS011;27666;51.498;11.966;2023-01-20T14:41:44;15.87;;;9.17;;
17955;SDS011;27666;51.498;11.966;2023-01-20T14:44:33;21.27;;;12.63;;
17955;SDS011;27666;51.498;11.966;2023-01-20T14:47:20;20.17;;;9.80;;
17955;SDS011;27666;51.498;11.966;2023-01-20T14:50:10;19.20;;;10.37;;
17955;SDS011;27666;51.498;11.966;2023-01-20T14:52:59;20.50;;;10.37;;
17955;SDS011;27666;51.498;11.966;2023-01-20T14:55:56;17.57;;;10.03;;
17955;SDS011;27666;51.498;11.966;2023-01-20T14:58:46;22.70;;;10.13;;
17955;SDS011;27666;51.498;11.966;2023-01-20T15:01:34;21.03;;;11.53;;
17955;SDS011;27666;51.498;11.966;2023-01-20T15:04:21;20.00;;;10.03;;
17955;SDS011;27666;51.498;11.966;2023-01-20T15:07:11;22.40;;;11.50;;
17955;SDS011;27666;51.498;11.966;2023-01-20T15:10:05;24.63;;;12.13;;
17955;SDS011;27666;51.498;11.966;2023-01-20T15:12:53;25.33;;;11.93;;
17955;SDS011;27666;51.498;11.966;2023-01-20T15:15:40;29.73;;;13.07;;
17955;SDS011;27666;51.498;11.966;2023-01-20T15:18:27;28.83;;;13.37;;
17955;SDS011;27666;51.498;11.966;2023-01-20T15:21:20;28.60;;;11.67;;
17955;SDS011;27666;51.498;11.966;2023-01-20T15:24:11;21.17;;;11.43;;
17955;SDS011;27666;51.498;11.966;2023-01-20T15:26:58;22.20;;;12.60;;
17955;SDS011;27666;51.498;11.966;2023-01-20T15:29:58;26.57;;;12.17;;
17955;SDS011;27666;51.498;11.966;2023-01-20T15:32:57;21.73;;;11.43;;
17955;SDS011;27666;51.498;11.966;2023-01-20T15:35:44;19.20;;;11.50;;
17955;SDS011;27666;51.498;11.966;2023-01-20T15:38:30;21.17;;;11.63;;
17955;SDS011;27666;51.498;11.966;2023-01-20T15:41:17;38.20;;;18.00;;
17955;SDS011;27666;51.498;11.966;2023-01-20T15:44:04;26.23;;;12.60;;
17955;SDS011;27666;51.498;11.966;2023-01-20T15:46:52;19.53;;;11.37;;
17955;SDS011;27666;51.498;11.966;2023-01-20T15:49:41;26.50;;;14.20;;
17955;SDS011;27666;51.498;11.966;2023-01-20T15:52:28;24.23;;;11.43;;
17955;SDS011;27666;51.498;11.966;2023-01-20T15:55:15;23.87;;;11.63;;
17955;SDS011;27666;51.498;11.966;2023-01-20T15:58:05;30.43;;;15.00;;
17955;SDS011;27666;51.498;11.966;2023-01-20T16:01:04;32.70;;;17.67;;
17955;SDS011;27666;51.498;11.966;2023-01-20T16:03:53;32.23;;;15.73;;
17955;SDS011;27666;51.498;11.966;2023-01-20T16:06:40;31.17;;;13.63;;
17955;SDS011;27666;51.498;11.966;2023-01-20T16:09:27;28.47;;;15.30;;
17955;SDS011;27666;51.498;11.966;2023-01-20T16:12:17;31.33;;;17.43;;
17955;SDS011;27666;51.498;11.966;2023-01-20T16:15:04;32.70;;;16.30;;
17955;SDS011;27666;51.498;11.966;2023-01-20T16:17:51;26.90;;;16.77;;
17955;SDS011;27666;51.498;11.966;2023-01-20T16:20:39;29.33;;;14.50;;
17955;SDS011;27666;51.498;11.966;2023-01-20T16:23:26;23.80;;;14.00;;
17955;SDS011;27666;51.498;11.966;2023-01-20T16:26:17;25.50;;;14.40;;
17955;SDS011;27666;51.498;11.966;2023-01-20T16:29:07;31.13;;;14.97;;
17955;SDS011;27666;51.498;11.966;2023-01-20T16:31:54;32.03;;;16.30;;
17955;SDS011;27666;51.498;11.966;2023-01-20T16:34:40;33.83;;;16.07;;
17955;SDS011;27666;51.498;11.966;2023-01-20T16:37:29;27.27;;;14.07;;
17955;SDS011;27666;51.498;11.966;2023-01-20T16:40:16;23.60;;;12.50;;
17955;SDS011;27666;51.498;11.966;2023-01-20T16:43:04;23.67;;;13.20;;